createdAt,value
2023-03-25T00:01:15.410Z,1.52
2023-03-25T00:03:42.943Z,1.35
2023-03-25T00:06:12.477Z,1.50
2023-03-25T00:08:39.519Z,1.40
2023-03-25T00:11:07.592Z,1.48
2023-03-25T00:13:35.450Z,1.23
2023-03-25T00:16:06.068Z,1.42
2023-03-25T00:18:33.966Z,1.60
2023-03-25T00:21:05.452Z,1.65
2023-03-25T00:23:34.113Z,1.23
2023-03-25T00:26:01.017Z,1.25
2023-03-25T00:28:31.296Z,1.25
2023-03-25T00:31:05.742Z,1.15
2023-03-25T00:33:33.432Z,1.30
2023-03-25T00:36:00.900Z,1.40
2023-03-25T00:38:34.624Z,1.23
2023-03-25T00:41:10.578Z,1.90
2023-03-25T00:43:39.944Z,1.50
2023-03-25T00:46:06.950Z,1.30
2023-03-25T00:48:33.780Z,1.20
2023-03-25T00:51:08.290Z,1.13
2023-03-25T00:53:36.474Z,1.10
2023-03-25T00:56:07.540Z,1.27
2023-03-25T00:58:36.967Z,1.38
2023-03-25T01:01:16.791Z,1.20
2023-03-25T01:03:44.437Z,1.20
2023-03-25T01:06:16.124Z,1.10
2023-03-25T01:08:44.320Z,1.15
2023-03-25T01:11:20.699Z,1.08
2023-03-25T01:13:47.852Z,1.20
2023-03-25T01:16:14.736Z,1.20
2023-03-25T01:18:42.131Z,1.00
2023-03-25T01:21:09.135Z,0.93
2023-03-25T01:23:41.510Z,1.30
2023-03-25T01:26:08.650Z,1.15
2023-03-25T01:28:35.720Z,0.90
2023-03-25T01:31:04.658Z,1.10
2023-03-25T01:33:33.141Z,1.10
2023-03-25T01:36:01.019Z,1.00
2023-03-25T01:38:28.017Z,1.00
2023-03-25T01:43:34.639Z,1.23
2023-03-25T01:46:01.712Z,0.90
2023-03-25T01:48:41.437Z,1.25
2023-03-25T01:51:17.787Z,1.38
2023-03-25T01:53:45.818Z,1.00
2023-03-25T01:56:15.611Z,1.10
2023-03-25T01:58:44.405Z,1.08
2023-03-25T02:01:16.398Z,1.10
2023-03-25T02:03:53.371Z,0.95
2023-03-25T02:06:26.985Z,1.23
2023-03-25T02:08:55.203Z,1.20
2023-03-25T02:11:29.676Z,0.85
2023-03-25T02:14:04.318Z,1.20
2023-03-25T02:16:40.036Z,1.25
2023-03-25T02:19:18.883Z,1.63
2023-03-25T02:22:21.467Z,1.20
2023-03-25T02:25:06.267Z,1.33
2023-03-25T02:27:57.894Z,1.00
2023-03-25T02:30:51.931Z,1.20
2023-03-25T02:33:40.624Z,1.20
2023-03-25T02:36:13.309Z,0.98
2023-03-25T02:38:42.113Z,1.35
2023-03-25T02:41:17.298Z,0.88
2023-03-25T02:44:05.326Z,1.15
2023-03-25T02:46:32.557Z,0.90
2023-03-25T02:49:04.446Z,1.10
2023-03-25T02:51:34.325Z,1.17
2023-03-25T02:54:05.269Z,1.23
2023-03-25T02:56:33.242Z,1.02
2023-03-25T02:59:03.224Z,1.13
2023-03-25T03:01:30.068Z,1.00
2023-03-25T03:03:57.169Z,1.00
2023-03-25T03:06:25.611Z,1.20
2023-03-25T03:08:58.729Z,1.42
2023-03-25T03:11:47.371Z,0.90
2023-03-25T03:14:31.211Z,1.05
2023-03-25T03:17:24.027Z,0.98
2023-03-25T03:19:55.884Z,0.80
2023-03-25T03:22:43.210Z,1.02
2023-03-25T03:25:45.203Z,0.80
2023-03-25T03:28:39.824Z,0.93
2023-03-25T03:31:49.732Z,0.90
2023-03-25T03:34:20.594Z,1.10
2023-03-25T03:36:50.465Z,1.02
2023-03-25T03:39:32.944Z,1.20
2023-03-25T03:42:08.535Z,1.13
2023-03-25T03:44:38.665Z,0.93
2023-03-25T03:47:11.264Z,1.10
2023-03-25T03:50:06.757Z,0.80
2023-03-25T03:52:38.208Z,1.00
2023-03-25T03:55:12.468Z,0.90
2023-03-25T03:57:44.029Z,0.80
2023-03-25T04:00:19.434Z,1.20
2023-03-25T04:02:50.841Z,0.70
2023-03-25T04:05:18.916Z,0.98
2023-03-25T04:07:57.257Z,0.90
2023-03-25T04:10:36.771Z,1.08
2023-03-25T04:13:07.765Z,0.80
2023-03-25T04:15:34.726Z,1.10
2023-03-25T04:18:01.993Z,0.98
2023-03-25T04:20:30.900Z,1.17
2023-03-25T04:22:57.624Z,1.25
2023-03-25T04:25:25.563Z,0.90
2023-03-25T04:27:55.603Z,0.90
2023-03-25T04:30:22.578Z,0.70
2023-03-25T04:32:49.361Z,0.82
2023-03-25T04:35:18.768Z,1.13
2023-03-25T04:37:46.657Z,0.80
2023-03-25T04:40:19.069Z,0.80
2023-03-25T04:42:47.002Z,0.77
2023-03-25T04:45:19.308Z,1.27
2023-03-25T04:47:49.044Z,0.98
2023-03-25T04:50:28.184Z,0.90
2023-03-25T04:52:57.746Z,1.20
2023-03-25T04:55:26.007Z,0.80
2023-03-25T04:57:54.427Z,0.85
2023-03-25T05:00:27.466Z,1.05
2023-03-25T05:02:55.807Z,0.77
2023-03-25T05:05:24.824Z,1.00
2023-03-25T05:07:53.882Z,0.82
2023-03-25T05:10:23.476Z,0.95
2023-03-25T05:12:52.091Z,0.90
2023-03-25T05:15:18.822Z,0.95
2023-03-25T05:17:46.201Z,1.02
2023-03-25T05:20:14.795Z,0.85
2023-03-25T05:22:46.256Z,1.10
2023-03-25T05:25:12.953Z,0.80
2023-03-25T05:27:39.971Z,0.93
2023-03-25T05:30:08.970Z,0.90
2023-03-25T05:32:35.741Z,0.93
2023-03-25T05:35:03.727Z,0.90
2023-03-25T05:37:31.100Z,0.80
2023-03-25T05:39:58.186Z,0.80
2023-03-25T05:42:26.355Z,0.77
2023-03-25T05:44:54.316Z,0.98
2023-03-25T05:47:24.611Z,1.00
2023-03-25T05:49:52.860Z,0.80
2023-03-25T05:52:25.048Z,0.90
2023-03-25T05:54:52.365Z,0.63
2023-03-25T05:57:19.277Z,0.68
2023-03-25T05:59:46.150Z,0.70
2023-03-25T06:02:15.681Z,0.63
2023-03-25T06:04:43.114Z,0.70
2023-03-25T06:07:14.882Z,0.70
2023-03-25T06:09:46.283Z,0.70
2023-03-25T06:12:17.085Z,0.55
2023-03-25T06:14:46.189Z,0.60
2023-03-25T06:17:14.294Z,0.80
2023-03-25T06:19:41.258Z,0.77
2023-03-25T06:22:11.904Z,0.80
2023-03-25T06:24:39.544Z,0.60
2023-03-25T06:27:15.380Z,0.95
2023-03-25T06:29:45.125Z,0.70
2023-03-25T06:32:16.921Z,0.60
2023-03-25T06:34:44.959Z,0.80
2023-03-25T06:37:12.566Z,0.60
2023-03-25T06:39:40.632Z,0.73
2023-03-25T06:42:08.471Z,0.70
2023-03-25T06:44:35.292Z,0.73
2023-03-25T06:47:04.741Z,0.70
2023-03-25T06:49:32.210Z,1.02
2023-03-25T06:51:59.987Z,0.70
2023-03-25T06:54:27.733Z,0.35
2023-03-25T06:56:54.679Z,0.80
2023-03-25T06:59:27.877Z,0.57
2023-03-25T07:01:55.750Z,0.77
2023-03-25T07:04:22.947Z,1.00
2023-03-25T07:06:52.654Z,0.52
2023-03-25T07:09:19.519Z,0.63
2023-03-25T07:11:48.627Z,0.77
2023-03-25T07:14:15.680Z,0.50
2023-03-25T07:16:42.504Z,0.77
2023-03-25T07:19:09.614Z,0.68
2023-03-25T07:21:36.684Z,0.75
2023-03-25T07:24:05.965Z,0.77
2023-03-25T07:26:33.147Z,0.50
2023-03-25T07:29:00.026Z,0.65
2023-03-25T07:31:29.682Z,0.70
2023-03-25T07:33:56.528Z,1.10
2023-03-25T07:36:25.479Z,0.63
2023-03-25T07:38:56.475Z,0.88
2023-03-25T07:41:23.921Z,0.50
2023-03-25T07:43:50.766Z,0.68
2023-03-25T07:46:20.369Z,0.70
2023-03-25T07:48:49.817Z,0.70
2023-03-25T07:51:16.760Z,0.70
2023-03-25T07:53:51.490Z,0.68
2023-03-25T07:56:18.320Z,0.77
2023-03-25T07:58:45.758Z,0.75
2023-03-25T08:01:12.742Z,0.93
2023-03-25T08:03:40.214Z,0.55
2023-03-25T08:06:08.169Z,0.90
2023-03-25T08:08:35.856Z,0.65
2023-03-25T08:11:03.175Z,0.85
2023-03-25T08:13:30.630Z,0.50
2023-03-25T08:15:58.772Z,0.88
2023-03-25T08:18:25.886Z,0.70
2023-03-25T08:20:56.680Z,0.70
2023-03-25T08:23:23.701Z,0.68
2023-03-25T08:25:51.573Z,0.70
2023-03-25T08:28:23.727Z,0.77
2023-03-25T08:30:55.529Z,0.70
2023-03-25T08:33:34.725Z,0.70
2023-03-25T08:38:42.023Z,0.52
2023-03-25T08:41:11.118Z,0.70
2023-03-25T08:43:37.841Z,0.70
2023-03-25T08:46:05.042Z,0.60
2023-03-25T08:48:31.785Z,0.70
2023-03-25T08:50:59.393Z,0.70
2023-03-25T08:53:27.895Z,0.50
2023-03-25T08:55:56.255Z,0.70
2023-03-25T08:58:24.263Z,0.70
2023-03-25T09:00:56.127Z,0.50
2023-03-25T09:03:26.360Z,0.75
2023-03-25T09:05:53.647Z,0.73
2023-03-25T09:08:20.975Z,0.77
2023-03-25T09:10:48.363Z,0.47
2023-03-25T09:13:20.048Z,0.50
2023-03-25T09:15:47.809Z,0.50
2023-03-25T09:18:14.739Z,0.85
2023-03-25T09:20:41.559Z,0.40
2023-03-25T09:23:10.093Z,0.60
2023-03-25T09:25:38.062Z,0.75
2023-03-25T09:28:05.116Z,0.60
2023-03-25T09:30:35.041Z,0.80
2023-03-25T09:33:01.990Z,0.70
2023-03-25T09:35:31.737Z,0.73
2023-03-25T09:38:01.806Z,0.70
2023-03-25T09:40:29.103Z,0.60
2023-03-25T09:43:26.197Z,0.63
2023-03-25T09:45:54.319Z,0.70
2023-03-25T09:48:30.462Z,0.60
2023-03-25T09:51:09.037Z,0.70
2023-03-25T09:53:41.937Z,0.50
2023-03-25T09:56:23.623Z,0.70
2023-03-25T09:58:53.249Z,0.63
2023-03-25T10:02:11.628Z,0.68
2023-03-25T10:04:53.837Z,0.50
2023-03-25T10:07:41.585Z,0.50
2023-03-25T10:10:37.545Z,0.47
2023-03-25T10:13:31.437Z,0.50
2023-03-25T10:16:20.581Z,0.50
2023-03-25T10:18:56.087Z,0.77
2023-03-25T10:21:44.574Z,0.60
2023-03-25T10:24:18.011Z,0.70
2023-03-25T10:27:01.742Z,0.55
2023-03-25T10:29:34.670Z,0.55
2023-03-25T10:32:11.437Z,0.77
2023-03-25T10:34:48.164Z,0.80
2023-03-25T10:37:20.815Z,0.77
2023-03-25T10:39:50.134Z,0.55
2023-03-25T10:42:40.812Z,0.60
2023-03-25T10:45:19.062Z,0.50
2023-03-25T10:47:50.764Z,0.60
2023-03-25T10:50:18.021Z,0.47
2023-03-25T10:52:45.738Z,0.65
2023-03-25T10:55:25.583Z,0.60
2023-03-25T10:57:52.964Z,1.08
2023-03-25T11:00:22.240Z,0.50
2023-03-25T11:02:51.903Z,0.70
2023-03-25T11:05:22.125Z,0.70
2023-03-25T11:08:11.490Z,0.88
2023-03-25T11:10:39.139Z,0.50
2023-03-25T11:13:15.376Z,0.70
2023-03-25T11:15:42.821Z,0.70
2023-03-25T11:18:48.838Z,1.13
2023-03-25T11:21:16.105Z,0.60
2023-03-25T11:23:49.000Z,0.90
2023-03-25T11:26:18.942Z,0.60
2023-03-25T11:28:47.569Z,0.40
2023-03-25T11:31:21.415Z,0.50
2023-03-25T11:34:12.256Z,0.55
2023-03-25T11:36:41.222Z,0.50
2023-03-25T11:39:23.222Z,0.60
2023-03-25T11:41:51.663Z,0.40
2023-03-25T11:44:23.862Z,0.70
2023-03-25T11:46:56.212Z,0.95
2023-03-25T11:49:23.479Z,0.65
2023-03-25T11:52:27.289Z,0.73
2023-03-25T11:54:57.878Z,0.70
2023-03-25T11:57:42.863Z,0.60
2023-03-25T12:00:25.613Z,0.60
2023-03-25T12:03:07.593Z,0.50
2023-03-25T12:05:35.123Z,0.50
2023-03-25T12:08:15.516Z,0.70
2023-03-25T12:10:44.969Z,0.60
2023-03-25T12:13:21.477Z,0.60
2023-03-25T12:16:12.597Z,0.60
2023-03-25T12:18:52.407Z,0.80
2023-03-25T12:21:43.522Z,0.60
2023-03-25T12:24:36.828Z,0.60
2023-03-25T12:27:28.558Z,0.70
2023-03-25T12:30:09.719Z,1.02
2023-03-25T12:33:03.835Z,0.60
2023-03-25T12:35:46.621Z,0.70
2023-03-25T12:38:34.803Z,0.50
2023-03-25T12:41:30.357Z,1.02
2023-03-25T12:44:00.808Z,1.85
2023-03-25T12:46:55.908Z,1.13
2023-03-25T12:49:36.383Z,0.60
2023-03-25T12:52:20.774Z,0.70
2023-03-25T12:55:15.975Z,0.50
2023-03-25T12:57:46.327Z,0.60
2023-03-25T13:01:07.064Z,0.60
2023-03-25T13:03:54.061Z,0.52
2023-03-25T13:06:30.226Z,0.63
2023-03-25T13:09:08.277Z,0.60
2023-03-25T13:11:50.253Z,0.50
2023-03-25T13:14:25.054Z,0.68
2023-03-25T13:16:55.662Z,0.52
2023-03-25T13:19:29.139Z,0.70
2023-03-25T13:22:02.065Z,0.60
2023-03-25T13:24:39.982Z,0.60
2023-03-25T13:27:06.590Z,0.50
2023-03-25T13:29:44.465Z,0.50
2023-03-25T13:32:34.514Z,0.40
2023-03-25T13:35:07.155Z,0.40
2023-03-25T13:37:43.035Z,0.50
2023-03-25T13:43:07.207Z,0.40
2023-03-25T13:45:45.904Z,0.40
2023-03-25T13:48:31.413Z,0.50
2023-03-25T13:51:01.032Z,0.60
2023-03-25T13:53:46.803Z,0.60
2023-03-25T13:56:45.321Z,0.50
2023-03-25T13:59:40.674Z,0.50
2023-03-25T14:02:38.975Z,0.60
2023-03-25T14:05:29.510Z,1.02
2023-03-25T14:08:04.690Z,0.73
2023-03-25T14:10:51.495Z,0.70
2023-03-25T14:13:30.835Z,0.65
2023-03-25T14:16:07.274Z,0.73
2023-03-25T14:18:41.464Z,1.75
2023-03-25T14:21:30.551Z,1.10
2023-03-25T14:24:07.709Z,2.08
2023-03-25T14:26:37.390Z,1.13
2023-03-25T14:29:09.776Z,1.00
2023-03-25T14:31:36.279Z,0.88
2023-03-25T14:34:02.746Z,1.65
2023-03-25T14:36:29.979Z,1.45
2023-03-25T14:38:59.707Z,1.30
2023-03-25T14:42:03.322Z,1.60
2023-03-25T14:44:32.610Z,0.95
2023-03-25T14:47:01.833Z,1.00
2023-03-25T14:50:25.695Z,0.88
2023-03-25T14:52:55.980Z,0.80
2023-03-25T14:55:28.569Z,0.80
2023-03-25T14:58:00.998Z,0.50
2023-03-25T15:03:10.293Z,1.30
2023-03-25T15:05:37.330Z,0.95
2023-03-25T15:08:06.795Z,2.70
2023-03-25T15:10:36.810Z,2.13
2023-03-25T15:13:06.054Z,1.77
2023-03-25T15:15:34.188Z,2.05
2023-03-25T15:18:01.840Z,1.58
2023-03-25T15:20:31.225Z,1.10
2023-03-25T15:23:43.457Z,1.45
2023-03-25T15:26:14.625Z,0.88
2023-03-25T15:28:55.348Z,1.60
2023-03-25T15:31:49.000Z,1.25
2023-03-25T15:34:40.926Z,1.30
2023-03-25T15:37:39.274Z,0.90
2023-03-25T16:06:01.437Z,1.30
2023-03-25T16:08:42.450Z,1.00
2023-03-25T16:11:18.592Z,1.08
2023-03-25T16:13:44.756Z,0.70
2023-03-25T16:16:13.218Z,0.80
2023-03-25T16:18:45.524Z,0.75
2023-03-25T16:21:12.080Z,1.08
2023-03-25T16:23:38.746Z,1.20
2023-03-25T16:26:07.487Z,1.38
2023-03-25T16:28:41.050Z,1.60
2023-03-25T16:31:27.776Z,1.75
2023-03-25T16:33:58.564Z,1.65
2023-03-25T16:36:25.608Z,1.63
2023-03-25T16:38:52.075Z,2.50
2023-03-25T16:41:20.691Z,1.33
2023-03-25T16:43:46.972Z,1.45
2023-03-25T16:46:14.679Z,1.17
2023-03-25T16:48:43.268Z,1.30
2023-03-25T16:51:25.218Z,2.08
2023-03-25T16:54:01.825Z,2.42
2023-03-25T16:56:30.693Z,1.90
2023-03-25T16:59:10.299Z,1.38
2023-03-25T17:01:43.613Z,1.52
2023-03-25T17:04:16.965Z,2.22
2023-03-25T17:06:45.258Z,2.47
2023-03-25T17:09:27.769Z,3.13
2023-03-25T17:12:05.850Z,2.85
2023-03-25T17:14:36.411Z,2.50
2023-03-25T17:17:12.101Z,1.70
2023-03-25T17:19:45.660Z,1.35
2023-03-25T17:22:18.976Z,1.13
2023-03-25T17:24:57.059Z,1.35
2023-03-25T17:27:38.557Z,1.13
2023-03-25T17:30:43.006Z,1.40
2023-03-25T17:33:35.081Z,1.10
2023-03-25T17:36:03.146Z,1.10
2023-03-25T17:38:37.758Z,1.67
2023-03-25T17:41:09.314Z,1.50
2023-03-25T17:43:41.731Z,2.15
2023-03-25T17:46:08.328Z,1.45
2023-03-25T17:48:35.680Z,1.77
2023-03-25T17:51:02.527Z,2.05
2023-03-25T17:53:29.137Z,1.90
2023-03-25T17:56:00.646Z,2.42
2023-03-25T17:58:26.808Z,2.30
2023-03-25T18:00:55.976Z,2.47
2023-03-25T18:03:23.435Z,2.63
2023-03-25T18:05:56.635Z,3.13
2023-03-25T18:08:24.961Z,4.03
2023-03-25T18:10:52.803Z,3.63
2023-03-25T18:13:21.318Z,5.05
2023-03-25T18:15:48.631Z,5.18
2023-03-25T18:18:21.224Z,4.50
2023-03-25T18:20:48.205Z,3.60
2023-03-25T18:23:15.201Z,3.60
2023-03-25T18:25:44.363Z,2.58
2023-03-25T18:28:12.854Z,2.10
2023-03-25T18:30:55.433Z,5.00
2023-03-25T18:33:26.737Z,4.13
2023-03-25T18:35:53.302Z,2.85
2023-03-25T18:38:24.735Z,2.40
2023-03-25T18:40:53.977Z,2.00
2023-03-25T18:43:21.078Z,2.30
2023-03-25T18:45:47.523Z,1.38
2023-03-25T18:48:17.947Z,0.82
2023-03-25T18:50:50.711Z,0.98
2023-03-25T18:53:17.029Z,0.95
2023-03-25T18:55:50.144Z,1.10
2023-03-25T18:58:24.246Z,0.90
2023-03-25T19:00:52.571Z,1.73
2023-03-25T19:03:30.756Z,1.02
2023-03-25T19:05:59.458Z,0.90
2023-03-25T19:08:29.461Z,1.20
2023-03-25T19:11:04.850Z,1.25
2023-03-25T19:13:40.361Z,1.02
2023-03-25T19:16:07.403Z,2.30
2023-03-25T19:18:34.224Z,1.10
2023-03-25T19:21:00.804Z,1.10
2023-03-25T19:23:27.294Z,0.90
2023-03-25T19:26:00.833Z,1.00
2023-03-25T19:28:27.772Z,0.55
2023-03-25T19:31:00.181Z,0.57
2023-03-25T19:33:32.265Z,0.60
2023-03-25T19:36:01.261Z,0.60
2023-03-25T19:38:28.746Z,0.50
2023-03-25T19:41:24.430Z,0.63
2023-03-25T19:43:57.705Z,0.50
2023-03-25T19:46:24.049Z,0.70
2023-03-25T19:48:54.577Z,1.00
2023-03-25T19:51:20.825Z,0.85
2023-03-25T19:53:50.568Z,1.33
2023-03-25T19:56:16.956Z,1.30
2023-03-25T19:58:43.286Z,0.90
2023-03-25T20:01:10.367Z,1.25
2023-03-25T20:03:40.366Z,1.23
2023-03-25T20:06:07.217Z,1.05
2023-03-25T20:08:33.509Z,0.70
2023-03-25T20:11:00.579Z,0.80
2023-03-25T20:13:27.035Z,0.60
2023-03-25T20:15:56.055Z,0.70
2023-03-25T20:18:22.565Z,0.60
2023-03-25T20:20:48.844Z,0.80
2023-03-25T20:23:15.067Z,0.65
2023-03-25T20:25:41.330Z,0.60
2023-03-25T20:28:11.434Z,0.68
2023-03-25T20:30:41.209Z,0.65
2023-03-25T20:33:07.591Z,0.70
2023-03-25T20:35:34.969Z,0.75
2023-03-25T20:38:02.693Z,0.50
2023-03-25T20:40:41.608Z,0.50
2023-03-25T20:43:22.308Z,0.63
2023-03-25T20:45:48.553Z,0.75
2023-03-25T20:48:15.593Z,0.68
2023-03-25T20:50:44.058Z,0.60
2023-03-25T20:53:13.155Z,0.60
2023-03-25T20:55:39.541Z,0.80
2023-03-25T20:58:07.796Z,0.50
2023-03-25T21:00:34.474Z,0.70
2023-03-25T21:03:01.820Z,0.88
2023-03-25T21:05:28.421Z,0.68
2023-03-25T21:07:54.550Z,0.50
2023-03-25T21:10:22.048Z,0.70
2023-03-25T21:12:48.732Z,0.68
2023-03-25T21:15:15.262Z,0.88
2023-03-25T21:17:42.773Z,0.77
2023-03-25T21:20:10.401Z,0.70
2023-03-25T21:22:42.203Z,0.70
2023-03-25T21:25:09.333Z,1.10
2023-03-25T21:27:37.733Z,0.60
2023-03-25T21:30:08.782Z,0.93
2023-03-25T21:32:37.469Z,0.88
2023-03-25T21:35:03.851Z,0.77
2023-03-25T21:37:38.544Z,0.70
2023-03-25T21:40:08.683Z,1.02
2023-03-25T21:42:37.975Z,1.05
2023-03-25T21:45:04.875Z,0.93
2023-03-25T21:47:31.029Z,0.90
2023-03-25T21:49:57.659Z,1.00
2023-03-25T21:52:26.042Z,0.77
2023-03-25T21:54:54.662Z,0.70
2023-03-25T21:57:21.640Z,1.00
2023-03-25T21:59:48.418Z,0.90
2023-03-25T22:02:14.697Z,0.88
2023-03-25T22:04:40.992Z,1.00
2023-03-25T22:07:10.079Z,0.93
2023-03-25T22:09:37.230Z,0.90
2023-03-25T22:12:03.790Z,1.15
2023-03-25T22:14:33.434Z,0.90
2023-03-25T22:17:02.347Z,1.10
2023-03-25T22:19:28.773Z,0.95
2023-03-25T22:21:55.482Z,1.30
2023-03-25T22:24:21.752Z,1.00
2023-03-25T22:26:48.505Z,1.10
2023-03-25T22:29:15.138Z,1.00
2023-03-25T22:31:42.628Z,1.02
2023-03-25T22:34:14.725Z,0.77
2023-03-25T22:36:44.574Z,1.08
2023-03-25T22:39:18.615Z,1.00
2023-03-25T22:41:45.319Z,0.80
2023-03-25T22:44:13.075Z,0.90
2023-03-25T22:46:40.499Z,1.05
2023-03-25T22:49:06.894Z,1.10
2023-03-25T22:51:33.592Z,1.27
2023-03-25T22:54:00.116Z,0.98
2023-03-25T22:56:35.612Z,1.02
2023-03-25T22:59:07.038Z,1.00
2023-03-25T23:01:34.101Z,1.00
2023-03-25T23:04:00.635Z,1.02
2023-03-25T23:06:26.766Z,0.90
2023-03-25T23:08:57.916Z,1.10
2023-03-25T23:11:26.668Z,1.00
2023-03-25T23:13:56.063Z,0.93
2023-03-25T23:16:25.052Z,1.08
2023-03-25T23:18:51.905Z,1.13
2023-03-25T23:21:21.057Z,1.20
2023-03-25T23:23:52.644Z,1.38
2023-03-25T23:26:26.076Z,1.00
2023-03-25T23:28:54.660Z,1.20
2023-03-25T23:31:29.451Z,1.00
2023-03-25T23:33:57.263Z,0.90
2023-03-25T23:36:27.787Z,1.27
2023-03-25T23:41:29.218Z,1.30
2023-03-25T23:43:55.798Z,1.17
2023-03-25T23:46:26.868Z,1.27
2023-03-25T23:49:01.709Z,0.80
2023-03-25T23:51:30.447Z,1.00
2023-03-25T23:53:56.668Z,1.20
2023-03-25T23:56:23.828Z,1.23
2023-03-25T23:58:53.335Z,1.05
